sensor_id;sensor_type;location;lat;lon;timestamp;pressure;altitude;pressure_sealevel;temperature;humidity
21236;BME280;10775;42.678;26.324;2023-07-08T00:00:23;98476.97;;;25.09;71.42
21236;BME280;10775;42.678;26.324;2023-07-08T00:02:48;98485.28;;;23.71;73.62
21236;BME280;10775;42.678;26.324;2023-07-08T00:05:16;98472.88;;;25.79;70.75
21236;BME280;10775;42.678;26.324;2023-07-08T00:07:42;98469.31;;;24.72;68.81
21236;BME280;10775;42.678;26.324;2023-07-08T00:12:47;98461.56;;;24.58;74.85
21236;BME280;10775;42.678;26.324;2023-07-08T00:15:13;98462.19;;;24.50;69.96
21236;BME280;10775;42.678;26.324;2023-07-08T00:17:39;98475.16;;;24.66;69.57
21236;BME280;10775;42.678;26.324;2023-07-08T00:20:17;98481.97;;;24.48;76.18
21236;BME280;10775;42.678;26.324;2023-07-08T00:22:44;98484.88;;;24.22;73.50
21236;BME280;10775;42.678;26.324;2023-07-08T00:25:13;98480.97;;;24.38;76.57
21236;BME280;10775;42.678;26.324;2023-07-08T00:27:40;98482.53;;;23.49;74.24
21236;BME280;10775;42.678;26.324;2023-07-08T00:30:26;98478.56;;;24.12;77.36
21236;BME280;10775;42.678;26.324;2023-07-08T00:32:52;98491.53;;;23.59;73.73
21236;BME280;10775;42.678;26.324;2023-07-08T00:35:22;98486.19;;;24.28;71.56
21236;BME280;10775;42.678;26.324;2023-07-08T00:37:50;98467.41;;;23.14;78.91
21236;BME280;10775;42.678;26.324;2023-07-08T00:40:20;98480.63;;;23.51;77.66
21236;BME280;10775;42.678;26.324;2023-07-08T00:42:46;98477.56;;;24.69;75.11
21236;BME280;10775;42.678;26.324;2023-07-08T00:45:24;98477.31;;;25.48;72.11
21236;BME280;10775;42.678;26.324;2023-07-08T00:47:53;98469.09;;;24.42;75.81
21236;BME280;10775;42.678;26.324;2023-07-08T00:50:19;98480.38;;;24.68;74.87
21236;BME280;10775;42.678;26.324;2023-07-08T00:52:45;98482.06;;;24.80;70.80
21236;BME280;10775;42.678;26.324;2023-07-08T00:55:11;98477.47;;;24.60;69.19
21236;BME280;10775;42.678;26.324;2023-07-08T00:57:39;98482.22;;;24.11;75.73
21236;BME280;10775;42.678;26.324;2023-07-08T01:00:11;98491.03;;;24.90;70.41
21236;BME280;10775;42.678;26.324;2023-07-08T01:02:50;98482.41;;;23.74;72.69
21236;BME280;10775;42.678;26.324;2023-07-08T01:05:21;98475.88;;;23.90;78.21
21236;BME280;10775;42.678;26.324;2023-07-08T01:07:51;98494.88;;;24.98;72.35
21236;BME280;10775;42.678;26.324;2023-07-08T01:10:40;98475.69;;;23.69;73.33
21236;BME280;10775;42.678;26.324;2023-07-08T01:13:09;98469.22;;;24.95;74.46
21236;BME280;10775;42.678;26.324;2023-07-08T01:15:42;98460.94;;;25.84;70.33
21236;BME280;10775;42.678;26.324;2023-07-08T01:18:09;98464.69;;;24.41;69.21
21236;BME280;10775;42.678;26.324;2023-07-08T01:20:37;98469.94;;;23.51;75.41
21236;BME280;10775;42.678;26.324;2023-07-08T01:23:02;98467.47;;;23.36;75.95
21236;BME280;10775;42.678;26.324;2023-07-08T01:25:30;98442.66;;;23.47;74.05
21236;BME280;10775;42.678;26.324;2023-07-08T01:27:57;98432.84;;;23.48;77.96
21236;BME280;10775;42.678;26.324;2023-07-08T01:30:23;98421.13;;;24.40;74.43
21236;BME280;10775;42.678;26.324;2023-07-08T01:32:51;98436.22;;;23.96;72.00
21236;BME280;10775;42.678;26.324;2023-07-08T01:35:21;98420.31;;;24.17;76.75
21236;BME280;10775;42.678;26.324;2023-07-08T01:37:56;98426.50;;;23.73;74.12
21236;BME280;10775;42.678;26.324;2023-07-08T01:40:32;98421.59;;;23.66;73.51
21236;BME280;10775;42.678;26.324;2023-07-08T01:42:58;98416.09;;;23.57;75.60
21236;BME280;10775;42.678;26.324;2023-07-08T01:45:26;98403.16;;;22.93;76.45
21236;BME280;10775;42.678;26.324;2023-07-08T01:47:56;98413.28;;;23.94;73.43
21236;BME280;10775;42.678;26.324;2023-07-08T01:50:24;98401.56;;;25.15;73.28
21236;BME280;10775;42.678;26.324;2023-07-08T01:52:52;98409.19;;;24.67;72.22
21236;BME280;10775;42.678;26.324;2023-07-08T01:55:22;98414.97;;;23.83;72.28
21236;BME280;10775;42.678;26.324;2023-07-08T01:57:51;98419.19;;;24.54;71.63
21236;BME280;10775;42.678;26.324;2023-07-08T02:00:17;98412.84;;;24.66;75.01
21236;BME280;10775;42.678;26.324;2023-07-08T02:02:42;98395.06;;;24.10;71.32
21236;BME280;10775;42.678;26.324;2023-07-08T02:05:08;98413.22;;;23.13;72.97
21236;BME280;10775;42.678;26.324;2023-07-08T02:07:33;98400.50;;;22.93;72.53
21236;BME280;10775;42.678;26.324;2023-07-08T02:09:59;98415.09;;;23.35;73.52
21236;BME280;10775;42.678;26.324;2023-07-08T02:12:24;98414.59;;;23.30;72.19
21236;BME280;10775;42.678;26.324;2023-07-08T02:14:49;98404.03;;;22.93;73.40
21236;BME280;10775;42.678;26.324;2023-07-08T02:17:15;98416.78;;;23.25;72.06
21236;BME280;10775;42.678;26.324;2023-07-08T02:19:42;98410.72;;;22.75;80.02
21236;BME280;10775;42.678;26.324;2023-07-08T02:22:08;98407.09;;;22.52;76.06
21236;BME280;10775;42.678;26.324;2023-07-08T02:24:34;98408.00;;;23.12;77.06
21236;BME280;10775;42.678;26.324;2023-07-08T02:26:59;98410.81;;;22.12;75.80
21236;BME280;10775;42.678;26.324;2023-07-08T02:29:25;98415.03;;;22.41;75.38
21236;BME280;10775;42.678;26.324;2023-07-08T02:31:51;98418.63;;;23.00;72.36
21236;BME280;10775;42.678;26.324;2023-07-08T02:34:17;98420.84;;;22.22;74.12
21236;BME280;10775;42.678;26.324;2023-07-08T02:36:42;98426.25;;;22.20;73.99
21236;BME280;10775;42.678;26.324;2023-07-08T02:39:09;98437.34;;;22.27;74.40
21236;BME280;10775;42.678;26.324;2023-07-08T02:41:35;98444.44;;;22.13;76.44
21236;BME280;10775;42.678;26.324;2023-07-08T02:44:00;98453.16;;;22.41;80.38
21236;BME280;10775;42.678;26.324;2023-07-08T02:46:26;98444.94;;;22.19;74.49
21236;BME280;10775;42.678;26.324;2023-07-08T02:48:51;98447.69;;;23.28;73.52
21236;BME280;10775;42.678;26.324;2023-07-08T02:51:16;98432.78;;;22.53;78.44
21236;BME280;10775;42.678;26.324;2023-07-08T02:53:42;98445.03;;;23.28;72.83
21236;BME280;10775;42.678;26.324;2023-07-08T02:56:07;98457.94;;;23.45;77.84
21236;BME280;10775;42.678;26.324;2023-07-08T02:58:33;98448.81;;;22.14;74.45
21236;BME280;10775;42.678;26.324;2023-07-08T03:00:59;98461.09;;;22.91;72.90
21236;BME280;10775;42.678;26.324;2023-07-08T03:03:26;98458.41;;;22.04;79.23
21236;BME280;10775;42.678;26.324;2023-07-08T03:06:04;98468.00;;;22.07;75.73
21236;BME280;10775;42.678;26.324;2023-07-08T03:08:32;98456.84;;;22.88;75.12
21236;BME280;10775;42.678;26.324;2023-07-08T03:11:00;98479.69;;;22.30;75.68
21236;BME280;10775;42.678;26.324;2023-07-08T03:13:27;98457.59;;;22.53;77.81
21236;BME280;10775;42.678;26.324;2023-07-08T03:15:52;98454.13;;;23.36;70.79
21236;BME280;10775;42.678;26.324;2023-07-08T03:18:19;98486.84;;;23.03;78.33
21236;BME280;10775;42.678;26.324;2023-07-08T03:20:47;98486.16;;;22.51;72.72
21236;BME280;10775;42.678;26.324;2023-07-08T03:23:13;98492.13;;;22.79;75.29
21236;BME280;10775;42.678;26.324;2023-07-08T03:25:39;98493.38;;;22.49;81.32
21236;BME280;10775;42.678;26.324;2023-07-08T03:28:05;98493.25;;;22.27;75.96
21236;BME280;10775;42.678;26.324;2023-07-08T03:30:40;98503.59;;;22.68;74.87
21236;BME280;10775;42.678;26.324;2023-07-08T03:33:07;98506.66;;;22.25;75.83
21236;BME280;10775;42.678;26.324;2023-07-08T03:35:32;98497.16;;;22.21;76.00
21236;BME280;10775;42.678;26.324;2023-07-08T03:37:58;98512.09;;;22.73;74.19
21236;BME280;10775;42.678;26.324;2023-07-08T03:40:23;98505.56;;;22.77;81.20
21236;BME280;10775;42.678;26.324;2023-07-08T03:42:49;98543.66;;;22.67;73.81
21236;BME280;10775;42.678;26.324;2023-07-08T03:45:14;98505.34;;;25.44;70.33
21236;BME280;10775;42.678;26.324;2023-07-08T03:47:40;98522.69;;;25.50;69.22
21236;BME280;10775;42.678;26.324;2023-07-08T03:50:06;98512.69;;;26.15;66.86
21236;BME280;10775;42.678;26.324;2023-07-08T03:52:36;98523.97;;;25.34;67.63
21236;BME280;10775;42.678;26.324;2023-07-08T03:55:02;98540.47;;;24.28;68.04
21236;BME280;10775;42.678;26.324;2023-07-08T03:57:28;98531.94;;;25.02;71.67
21236;BME280;10775;42.678;26.324;2023-07-08T03:59:54;98530.19;;;25.12;70.80
21236;BME280;10775;42.678;26.324;2023-07-08T04:02:19;98525.19;;;24.76;71.41
21236;BME280;10775;42.678;26.324;2023-07-08T04:04:44;98543.91;;;24.42;67.33
21236;BME280;10775;42.678;26.324;2023-07-08T04:07:12;98540.59;;;25.38;69.27
21236;BME280;10775;42.678;26.324;2023-07-08T04:09:37;98549.00;;;25.66;68.59
21236;BME280;10775;42.678;26.324;2023-07-08T04:12:03;98530.47;;;25.74;67.26
21236;BME280;10775;42.678;26.324;2023-07-08T04:14:30;98538.66;;;25.93;66.95
21236;BME280;10775;42.678;26.324;2023-07-08T04:16:57;98536.31;;;26.21;66.18
21236;BME280;10775;42.678;26.324;2023-07-08T04:19:23;98552.16;;;24.84;65.17
21236;BME280;10775;42.678;26.324;2023-07-08T04:21:49;98549.25;;;23.84;68.86
21236;BME280;10775;42.678;26.324;2023-07-08T04:24:16;98549.50;;;23.57;76.40
21236;BME280;10775;42.678;26.324;2023-07-08T04:26:43;98537.84;;;24.62;72.45
21236;BME280;10775;42.678;26.324;2023-07-08T04:29:17;98551.84;;;23.13;71.77
21236;BME280;10775;42.678;26.324;2023-07-08T04:31:42;98552.09;;;23.34;75.37
21236;BME280;10775;42.678;26.324;2023-07-08T04:34:09;98567.00;;;23.61;73.25
21236;BME280;10775;42.678;26.324;2023-07-08T04:36:34;98547.28;;;23.75;76.72
21236;BME280;10775;42.678;26.324;2023-07-08T04:39:01;98549.00;;;23.52;72.47
21236;BME280;10775;42.678;26.324;2023-07-08T04:41:27;98565.66;;;22.32;77.51
21236;BME280;10775;42.678;26.324;2023-07-08T04:43:53;98547.97;;;22.31;80.93
21236;BME280;10775;42.678;26.324;2023-07-08T04:46:27;98529.22;;;22.45;77.25
21236;BME280;10775;42.678;26.324;2023-07-08T04:48:56;98560.41;;;22.93;79.98
21236;BME280;10775;42.678;26.324;2023-07-08T04:51:26;98558.69;;;24.91;72.39
21236;BME280;10775;42.678;26.324;2023-07-08T04:53:51;98567.34;;;25.49;65.60
21236;BME280;10775;42.678;26.324;2023-07-08T04:56:17;98567.16;;;24.28;69.64
21236;BME280;10775;42.678;26.324;2023-07-08T04:58:42;98563.03;;;25.14;70.51
21236;BME280;10775;42.678;26.324;2023-07-08T05:01:08;98560.91;;;26.15;66.37
21236;BME280;10775;42.678;26.324;2023-07-08T05:03:33;98591.81;;;26.40;65.37
21236;BME280;10775;42.678;26.324;2023-07-08T05:05:59;98589.22;;;23.97;73.47
21236;BME280;10775;42.678;26.324;2023-07-08T05:08:24;98585.88;;;23.82;73.59
21236;BME280;10775;42.678;26.324;2023-07-08T05:10:50;98586.44;;;22.89;74.77
21236;BME280;10775;42.678;26.324;2023-07-08T05:13:15;98579.44;;;22.88;75.31
21236;BME280;10775;42.678;26.324;2023-07-08T05:15:40;98579.16;;;23.17;79.17
21236;BME280;10775;42.678;26.324;2023-07-08T05:18:06;98585.66;;;22.50;75.65
21236;BME280;10775;42.678;26.324;2023-07-08T05:20:31;98582.16;;;22.37;78.85
21236;BME280;10775;42.678;26.324;2023-07-08T05:22:59;98583.94;;;23.73;71.87
21236;BME280;10775;42.678;26.324;2023-07-08T05:25:25;98581.44;;;23.94;72.29
21236;BME280;10775;42.678;26.324;2023-07-08T05:27:50;98579.78;;;23.44;71.53
21236;BME280;10775;42.678;26.324;2023-07-08T05:30:17;98564.78;;;24.59;73.13
21236;BME280;10775;42.678;26.324;2023-07-08T05:32:44;98577.34;;;25.68;68.48
21236;BME280;10775;42.678;26.324;2023-07-08T05:35:10;98581.53;;;24.95;66.61
21236;BME280;10775;42.678;26.324;2023-07-08T05:37:35;98585.25;;;25.15;69.93
21236;BME280;10775;42.678;26.324;2023-07-08T05:40:01;98580.81;;;24.82;69.83
21236;BME280;10775;42.678;26.324;2023-07-08T05:42:29;98577.53;;;26.09;66.85
21236;BME280;10775;42.678;26.324;2023-07-08T05:44:55;98587.34;;;26.50;64.65
21236;BME280;10775;42.678;26.324;2023-07-08T05:47:21;98585.13;;;25.39;66.55
21236;BME280;10775;42.678;26.324;2023-07-08T05:49:47;98583.97;;;24.98;70.60
21236;BME280;10775;42.678;26.324;2023-07-08T05:52:13;98590.09;;;25.76;66.94
21236;BME280;10775;42.678;26.324;2023-07-08T05:54:39;98587.97;;;26.12;66.06
21236;BME280;10775;42.678;26.324;2023-07-08T05:57:06;98596.47;;;26.59;64.35
21236;BME280;10775;42.678;26.324;2023-07-08T05:59:33;98594.88;;;25.61;62.66
21236;BME280;10775;42.678;26.324;2023-07-08T06:01:59;98599.91;;;24.88;70.11
21236;BME280;10775;42.678;26.324;2023-07-08T06:04:25;98588.03;;;26.21;65.22
21236;BME280;10775;42.678;26.324;2023-07-08T06:06:50;98584.34;;;26.64;64.05
21236;BME280;10775;42.678;26.324;2023-07-08T06:09:15;98582.91;;;26.60;63.89
21236;BME280;10775;42.678;26.324;2023-07-08T06:11:41;98576.69;;;26.91;62.70
21236;BME280;10775;42.678;26.324;2023-07-08T06:14:06;98599.00;;;26.60;60.26
21236;BME280;10775;42.678;26.324;2023-07-08T06:16:33;98597.03;;;25.99;63.99
21236;BME280;10775;42.678;26.324;2023-07-08T06:19:00;98585.88;;;24.17;71.72
21236;BME280;10775;42.678;26.324;2023-07-08T06:21:25;98580.69;;;25.81;66.53
21236;BME280;10775;42.678;26.324;2023-07-08T06:23:50;98583.47;;;25.04;66.70
21236;BME280;10775;42.678;26.324;2023-07-08T06:26:16;98585.03;;;25.29;68.65
21236;BME280;10775;42.678;26.324;2023-07-08T06:28:41;98576.09;;;24.63;69.74
21236;BME280;10775;42.678;26.324;2023-07-08T06:31:07;98577.44;;;26.20;65.46
21236;BME280;10775;42.678;26.324;2023-07-08T06:33:32;98576.47;;;26.00;60.96
21236;BME280;10775;42.678;26.324;2023-07-08T06:35:58;98583.59;;;25.90;66.30
21236;BME280;10775;42.678;26.324;2023-07-08T06:38:23;98567.97;;;24.76;62.55
21236;BME280;10775;42.678;26.324;2023-07-08T06:40:49;98585.41;;;25.02;63.33
21236;BME280;10775;42.678;26.324;2023-07-08T06:43:14;98547.31;;;25.32;68.48
21236;BME280;10775;42.678;26.324;2023-07-08T06:45:40;98534.84;;;26.48;64.39
21236;BME280;10775;42.678;26.324;2023-07-08T06:48:06;98551.44;;;24.70;61.42
21236;BME280;10775;42.678;26.324;2023-07-08T06:50:32;98556.38;;;23.48;69.22
21236;BME280;10775;42.678;26.324;2023-07-08T06:52:57;98549.84;;;24.34;71.95
21236;BME280;10775;42.678;26.324;2023-07-08T06:55:23;98573.19;;;25.43;65.80
21236;BME280;10775;42.678;26.324;2023-07-08T06:57:48;98575.00;;;22.63;72.57
21236;BME280;10775;42.678;26.324;2023-07-08T07:00:14;98562.66;;;22.24;79.32
21236;BME280;10775;42.678;26.324;2023-07-08T07:02:40;98575.00;;;20.91;87.50
21236;BME280;10775;42.678;26.324;2023-07-08T07:05:05;98573.31;;;20.75;92.78
21236;BME280;10775;42.678;26.324;2023-07-08T07:07:31;98581.06;;;23.39;77.54
21236;BME280;10775;42.678;26.324;2023-07-08T07:09:57;98574.16;;;22.50;82.69
21236;BME280;10775;42.678;26.324;2023-07-08T07:12:26;98584.56;;;22.14;85.06
21236;BME280;10775;42.678;26.324;2023-07-08T07:14:52;98586.47;;;22.12;85.98
21236;BME280;10775;42.678;26.324;2023-07-08T07:17:20;98582.25;;;22.35;83.55
21236;BME280;10775;42.678;26.324;2023-07-08T07:19:45;98570.88;;;22.96;79.46
21236;BME280;10775;42.678;26.324;2023-07-08T07:22:11;98567.84;;;22.64;82.19
21236;BME280;10775;42.678;26.324;2023-07-08T07:24:36;98585.81;;;22.98;76.15
21236;BME280;10775;42.678;26.324;2023-07-08T07:27:02;98565.50;;;23.21;76.27
21236;BME280;10775;42.678;26.324;2023-07-08T07:29:27;98601.53;;;22.39;80.76
21236;BME280;10775;42.678;26.324;2023-07-08T07:31:53;98581.28;;;22.49;77.55
21236;BME280;10775;42.678;26.324;2023-07-08T07:34:20;98607.69;;;22.78;79.77
21236;BME280;10775;42.678;26.324;2023-07-08T07:36:45;98604.59;;;22.71;81.56
21236;BME280;10775;42.678;26.324;2023-07-08T07:39:11;98607.88;;;23.85;76.81
21236;BME280;10775;42.678;26.324;2023-07-08T07:41:36;98610.56;;;25.00;69.63
21236;BME280;10775;42.678;26.324;2023-07-08T07:44:02;98610.22;;;25.04;70.91
21236;BME280;10775;42.678;26.324;2023-07-08T07:46:28;98615.75;;;23.87;72.68
21236;BME280;10775;42.678;26.324;2023-07-08T07:48:53;98614.63;;;24.14;74.41
21236;BME280;10775;42.678;26.324;2023-07-08T07:51:19;98622.44;;;25.41;69.98
21236;BME280;10775;42.678;26.324;2023-07-08T07:53:44;98623.75;;;25.90;67.74
21236;BME280;10775;42.678;26.324;2023-07-08T07:56:10;98636.91;;;25.93;67.27
21236;BME280;10775;42.678;26.324;2023-07-08T07:58:35;98638.13;;;25.45;68.91
21236;BME280;10775;42.678;26.324;2023-07-08T08:01:01;98647.28;;;26.07;66.47
21236;BME280;10775;42.678;26.324;2023-07-08T08:03:26;98649.66;;;26.00;66.53
21236;BME280;10775;42.678;26.324;2023-07-08T08:05:52;98645.31;;;25.33;66.55
21236;BME280;10775;42.678;26.324;2023-07-08T08:08:19;98646.97;;;25.57;68.53
21236;BME280;10775;42.678;26.324;2023-07-08T08:10:44;98658.59;;;24.67;70.89
21236;BME280;10775;42.678;26.324;2023-07-08T08:13:10;98659.47;;;24.44;71.99
21236;BME280;10775;42.678;26.324;2023-07-08T08:15:36;98662.25;;;24.89;71.65
21236;BME280;10775;42.678;26.324;2023-07-08T08:18:02;98652.66;;;23.45;72.45
21236;BME280;10775;42.678;26.324;2023-07-08T08:20:28;98663.72;;;24.00;75.58
21236;BME280;10775;42.678;26.324;2023-07-08T08:22:54;98666.84;;;24.87;72.13
21236;BME280;10775;42.678;26.324;2023-07-08T08:25:22;98665.88;;;25.33;70.01
21236;BME280;10775;42.678;26.324;2023-07-08T08:27:48;98668.53;;;25.44;69.51
21236;BME280;10775;42.678;26.324;2023-07-08T08:30:14;98667.69;;;24.87;69.18
21236;BME280;10775;42.678;26.324;2023-07-08T08:32:39;98673.53;;;25.04;71.20
21236;BME280;10775;42.678;26.324;2023-07-08T08:35:05;98676.56;;;25.10;69.54
21236;BME280;10775;42.678;26.324;2023-07-08T08:37:31;98668.97;;;23.16;78.53
21236;BME280;10775;42.678;26.324;2023-07-08T08:39:56;98677.47;;;24.42;74.81
21236;BME280;10775;42.678;26.324;2023-07-08T08:42:34;98684.72;;;23.93;76.33
21236;BME280;10775;42.678;26.324;2023-07-08T08:45:01;98684.13;;;25.39;70.45
21236;BME280;10775;42.678;26.324;2023-07-08T08:47:42;98689.41;;;26.05;67.35
21236;BME280;10775;42.678;26.324;2023-07-08T08:52:59;98685.81;;;22.53;79.96
21236;BME280;10775;42.678;26.324;2023-07-08T08:55:26;98694.56;;;23.80;77.54
21236;BME280;10775;42.678;26.324;2023-07-08T09:03:16;98699.44;;;26.24;66.67
21236;BME280;10775;42.678;26.324;2023-07-08T09:05:45;98709.22;;;26.67;65.05
21236;BME280;10775;42.678;26.324;2023-07-08T09:08:16;98711.28;;;24.19;73.60
21236;BME280;10775;42.678;26.324;2023-07-08T09:13:33;98719.66;;;22.38;82.14
21236;BME280;10775;42.678;26.324;2023-07-08T09:19:22;98711.25;;;25.34;71.06
21236;BME280;10775;42.678;26.324;2023-07-08T09:22:01;98718.00;;;23.63;77.29
21236;BME280;10775;42.678;26.324;2023-07-08T09:24:33;98718.13;;;23.49;79.05
21236;BME280;10775;42.678;26.324;2023-07-08T09:27:01;98726.53;;;22.93;82.71
21236;BME280;10775;42.678;26.324;2023-07-08T09:29:27;98717.78;;;22.91;82.04
21236;BME280;10775;42.678;26.324;2023-07-08T09:31:53;98698.91;;;23.57;80.73
21236;BME280;10775;42.678;26.324;2023-07-08T09:34:22;98709.25;;;22.61;82.35
21236;BME280;10775;42.678;26.324;2023-07-08T09:36:49;98703.09;;;23.11;83.05
21236;BME280;10775;42.678;26.324;2023-07-08T09:39:17;98698.91;;;23.57;80.87
21236;BME280;10775;42.678;26.324;2023-07-08T09:41:45;98686.69;;;24.02;78.20
21236;BME280;10775;42.678;26.324;2023-07-08T09:44:32;98685.94;;;25.05;73.45
21236;BME280;10775;42.678;26.324;2023-07-08T09:46:59;98674.72;;;25.99;68.68
21236;BME280;10775;42.678;26.324;2023-07-08T09:49:35;98669.38;;;25.45;69.25
21236;BME280;10775;42.678;26.324;2023-07-08T09:52:01;98672.13;;;26.30;67.35
21236;BME280;10775;42.678;26.324;2023-07-08T09:54:27;98661.44;;;26.72;65.12
21236;BME280;10775;42.678;26.324;2023-07-08T09:57:11;98651.13;;;27.08;63.75
21236;BME280;10775;42.678;26.324;2023-07-08T09:59:40;98652.81;;;27.09;63.33
21236;BME280;10775;42.678;26.324;2023-07-08T10:05:00;98665.59;;;26.44;65.48
21236;BME280;10775;42.678;26.324;2023-07-08T10:07:29;98669.88;;;25.50;66.94
21236;BME280;10775;42.678;26.324;2023-07-08T10:10:00;98663.31;;;24.28;69.06
21236;BME280;10775;42.678;26.324;2023-07-08T10:12:28;98658.31;;;23.40;74.71
21236;BME280;10775;42.678;26.324;2023-07-08T10:15:03;98639.22;;;23.34;74.14
21236;BME280;10775;42.678;26.324;2023-07-08T10:17:31;98641.44;;;23.77;73.30
21236;BME280;10775;42.678;26.324;2023-07-08T10:19:59;98638.09;;;24.44;74.60
21236;BME280;10775;42.678;26.324;2023-07-08T10:25:24;98641.66;;;26.73;64.73
21236;BME280;10775;42.678;26.324;2023-07-08T10:30:25;98633.97;;;27.20;62.56
21236;BME280;10775;42.678;26.324;2023-07-08T10:36:05;98639.97;;;25.88;59.99
21236;BME280;10775;42.678;26.324;2023-07-08T10:42:05;98646.44;;;27.00;63.17
21236;BME280;10775;42.678;26.324;2023-07-08T10:48:24;98652.63;;;25.09;65.93
21236;BME280;10775;42.678;26.324;2023-07-08T10:50:36;98652.94;;;23.77;69.10
21236;BME280;10775;42.678;26.324;2023-07-08T10:58:47;98645.84;;;26.66;59.35
21236;BME280;10775;42.678;26.324;2023-07-08T11:04:23;98626.63;;;27.22;61.80
21236;BME280;10775;42.678;26.324;2023-07-08T11:07:03;98647.56;;;25.60;61.25
21236;BME280;10775;42.678;26.324;2023-07-08T11:09:35;98639.13;;;26.72;62.28
21236;BME280;10775;42.678;26.324;2023-07-08T11:12:13;98622.44;;;27.49;60.43
21236;BME280;10775;42.678;26.324;2023-07-08T11:14:43;98624.66;;;27.24;59.67
21236;BME280;10775;42.678;26.324;2023-07-08T11:17:19;98622.41;;;27.29;59.69
21236;BME280;10775;42.678;26.324;2023-07-08T11:20:16;98632.72;;;27.34;60.17
21236;BME280;10775;42.678;26.324;2023-07-08T11:22:51;98637.44;;;27.61;60.57
21236;BME280;10775;42.678;26.324;2023-07-08T11:25:20;98625.31;;;27.17;61.17
21236;BME280;10775;42.678;26.324;2023-07-08T11:27:49;98643.56;;;26.82;58.29
21236;BME280;10775;42.678;26.324;2023-07-08T11:30:21;98635.47;;;26.73;60.45
21236;BME280;10775;42.678;26.324;2023-07-08T11:32:54;98630.59;;;26.57;63.27
21236;BME280;10775;42.678;26.324;2023-07-08T11:35:49;98632.81;;;26.31;62.41
21236;BME280;10775;42.678;26.324;2023-07-08T11:38:17;98628.88;;;26.56;62.62
21236;BME280;10775;42.678;26.324;2023-07-08T11:43:44;98625.50;;;26.84;62.24
21236;BME280;10775;42.678;26.324;2023-07-08T11:46:15;98635.88;;;27.68;59.29
21236;BME280;10775;42.678;26.324;2023-07-08T11:48:46;98639.50;;;27.28;55.12
21236;BME280;10775;42.678;26.324;2023-07-08T11:51:23;98645.19;;;26.74;57.41
21236;BME280;10775;42.678;26.324;2023-07-08T11:54:20;98639.19;;;26.39;56.92
21236;BME280;10775;42.678;26.324;2023-07-08T11:57:06;98643.69;;;25.53;57.63
21236;BME280;10775;42.678;26.324;2023-07-08T11:59:37;98640.53;;;25.59;58.25
21236;BME280;10775;42.678;26.324;2023-07-08T12:02:17;98638.44;;;25.63;59.38
21236;BME280;10775;42.678;26.324;2023-07-08T12:07:47;98640.03;;;25.98;61.46
21236;BME280;10775;42.678;26.324;2023-07-08T12:10:17;98632.16;;;26.38;57.51
21236;BME280;10775;42.678;26.324;2023-07-08T12:12:43;98629.44;;;26.17;61.05
21236;BME280;10775;42.678;26.324;2023-07-08T12:17:51;98629.03;;;26.85;54.75
21236;BME280;10775;42.678;26.324;2023-07-08T12:20:27;98623.28;;;27.40;57.71
21236;BME280;10775;42.678;26.324;2023-07-08T12:22:53;98619.34;;;27.44;59.10
21236;BME280;10775;42.678;26.324;2023-07-08T12:25:22;98630.38;;;26.70;55.18
21236;BME280;10775;42.678;26.324;2023-07-08T12:27:48;98631.44;;;26.57;55.75
21236;BME280;10775;42.678;26.324;2023-07-08T12:30:15;98629.53;;;26.69;61.23
21236;BME280;10775;42.678;26.324;2023-07-08T12:32:42;98632.44;;;26.66;55.33
21236;BME280;10775;42.678;26.324;2023-07-08T12:35:19;98637.69;;;25.72;57.67
21236;BME280;10775;42.678;26.324;2023-07-08T12:37:46;98654.13;;;26.00;62.07
21236;BME280;10775;42.678;26.324;2023-07-08T12:40:12;98643.84;;;26.37;55.92
21236;BME280;10775;42.678;26.324;2023-07-08T12:42:37;98629.94;;;26.43;55.66
21236;BME280;10775;42.678;26.324;2023-07-08T12:45:13;98630.03;;;27.24;60.29
21236;BME280;10775;42.678;26.324;2023-07-08T12:47:38;98623.31;;;27.59;54.28
21236;BME280;10775;42.678;26.324;2023-07-08T12:50:04;98619.59;;;26.91;55.01
21236;BME280;10775;42.678;26.324;2023-07-08T12:52:30;98617.91;;;25.96;57.01
21236;BME280;10775;42.678;26.324;2023-07-08T12:54:55;98625.88;;;25.75;58.43
21236;BME280;10775;42.678;26.324;2023-07-08T12:57:21;98631.16;;;26.60;60.28
21236;BME280;10775;42.678;26.324;2023-07-08T12:59:46;98622.38;;;26.89;55.91
21236;BME280;10775;42.678;26.324;2023-07-08T13:02:17;98620.75;;;25.72;58.54
21236;BME280;10775;42.678;26.324;2023-07-08T13:04:46;98624.63;;;25.90;58.53
21236;BME280;10775;42.678;26.324;2023-07-08T13:07:44;98617.06;;;25.95;57.13
21236;BME280;10775;42.678;26.324;2023-07-08T13:10:22;98606.81;;;26.00;58.46
21236;BME280;10775;42.678;26.324;2023-07-08T13:12:54;98613.44;;;26.69;57.30
21236;BME280;10775;42.678;26.324;2023-07-08T13:15:28;98600.59;;;27.13;58.16
21236;BME280;10775;42.678;26.324;2023-07-08T13:17:54;98615.22;;;26.59;56.13
21236;BME280;10775;42.678;26.324;2023-07-08T13:20:20;98608.28;;;26.35;56.71
21236;BME280;10775;42.678;26.324;2023-07-08T13:22:54;98609.66;;;26.09;61.10
21236;BME280;10775;42.678;26.324;2023-07-08T13:25:26;98615.47;;;26.35;60.35
21236;BME280;10775;42.678;26.324;2023-07-08T13:28:23;98613.34;;;26.29;56.99
21236;BME280;10775;42.678;26.324;2023-07-08T13:30:53;98622.09;;;26.31;57.10
21236;BME280;10775;42.678;26.324;2023-07-08T13:33:18;98604.81;;;26.44;57.08
21236;BME280;10775;42.678;26.324;2023-07-08T13:35:45;98602.09;;;26.14;59.10
21236;BME280;10775;42.678;26.324;2023-07-08T13:38:22;98612.19;;;26.10;57.91
21236;BME280;10775;42.678;26.324;2023-07-08T13:40:56;98609.00;;;25.63;59.42
21236;BME280;10775;42.678;26.324;2023-07-08T13:43:27;98597.00;;;26.11;61.73
21236;BME280;10775;42.678;26.324;2023-07-08T13:45:54;98595.75;;;26.15;59.47
21236;BME280;10775;42.678;26.324;2023-07-08T13:51:07;98607.69;;;25.57;60.88